createdAt,value
2023-04-18T00:00:02.907Z,6.30
2023-04-18T00:01:02.905Z,6.30
2023-04-18T00:02:03.003Z,6.30
2023-04-18T00:03:04.464Z,6.30
2023-04-18T00:04:02.981Z,6.30
2023-04-18T00:05:02.967Z,6.30
2023-04-18T00:06:02.817Z,6.30
2023-04-18T00:07:02.776Z,6.30
2023-04-18T00:08:02.680Z,6.30
2023-04-18T00:09:02.798Z,6.30
2023-04-18T00:10:03.031Z,6.30
2023-04-18T00:11:02.974Z,6.30
2023-04-18T00:12:03.080Z,6.30
2023-04-18T00:13:02.988Z,6.30
2023-04-18T00:14:03.057Z,6.30
2023-04-18T00:15:02.998Z,6.30
2023-04-18T00:16:03.033Z,6.30
2023-04-18T00:17:02.982Z,6.30
2023-04-18T00:18:02.977Z,6.30
2023-04-18T00:19:02.887Z,6.30
2023-04-18T00:20:02.909Z,6.30
2023-04-18T00:21:03.022Z,6.30
2023-04-18T00:22:02.935Z,6.30
2023-04-18T00:23:02.857Z,6.30
2023-04-18T00:24:02.794Z,6.30
2023-04-18T00:25:02.687Z,6.30
2023-04-18T00:26:02.682Z,6.30
2023-04-18T00:27:02.683Z,6.30
2023-04-18T00:28:02.638Z,6.30
2023-04-18T00:29:02.791Z,6.30
2023-04-18T00:30:02.748Z,6.30
2023-04-18T00:31:02.666Z,6.30
2023-04-18T00:32:02.663Z,6.30
2023-04-18T00:33:02.669Z,6.30
2023-04-18T00:34:02.591Z,6.30
2023-04-18T00:35:03.625Z,6.30
2023-04-18T00:36:03.571Z,6.20
2023-04-18T00:37:03.614Z,6.30
2023-04-18T00:38:03.514Z,6.30
2023-04-18T00:39:02.633Z,6.30
2023-04-18T00:40:02.744Z,6.30
2023-04-18T00:41:02.690Z,6.30
2023-04-18T00:42:02.739Z,6.30
2023-04-18T00:43:02.720Z,6.30
2023-04-18T00:44:02.759Z,6.30
2023-04-18T00:45:02.835Z,6.30
2023-04-18T00:46:02.790Z,6.30
2023-04-18T00:47:02.762Z,6.20
2023-04-18T00:48:02.813Z,6.20
2023-04-18T00:49:02.800Z,6.20
2023-04-18T00:50:02.775Z,6.20
2023-04-18T00:51:02.635Z,6.20
2023-04-18T00:52:02.614Z,6.20
2023-04-18T00:53:02.605Z,6.20
2023-04-18T00:54:03.589Z,6.20
2023-04-18T00:55:03.545Z,6.20
2023-04-18T00:56:03.575Z,6.20
2023-04-18T00:57:03.507Z,6.20
2023-04-18T00:58:03.525Z,6.20
2023-04-18T00:59:03.493Z,6.20
2023-04-18T01:00:03.411Z,6.20
2023-04-18T01:01:03.582Z,6.20
2023-04-18T01:02:03.604Z,6.20
2023-04-18T01:03:03.626Z,6.20
2023-04-18T01:04:03.594Z,6.20
2023-04-18T01:05:03.622Z,6.20
2023-04-18T01:06:03.558Z,6.20
2023-04-18T01:07:03.518Z,6.20
2023-04-18T01:08:03.543Z,6.20
2023-04-18T01:09:03.427Z,6.20
2023-04-18T01:10:03.500Z,6.20
2023-04-18T01:11:03.505Z,6.20
2023-04-18T01:12:03.485Z,6.20
2023-04-18T01:13:03.450Z,6.20
2023-04-18T01:14:03.540Z,6.20
2023-04-18T01:15:03.574Z,6.20
2023-04-18T01:16:03.535Z,6.20
2023-04-18T01:17:03.517Z,6.20
2023-04-18T01:18:03.566Z,6.20
2023-04-18T01:19:03.463Z,6.20
2023-04-18T01:20:03.401Z,6.20
2023-04-18T01:21:03.533Z,6.20
2023-04-18T01:22:03.492Z,6.20
2023-04-18T01:23:03.543Z,6.20
2023-04-18T01:24:03.557Z,6.20
2023-04-18T01:25:03.600Z,6.20
2023-04-18T01:26:02.693Z,6.20
2023-04-18T01:27:03.622Z,6.20
2023-04-18T01:28:03.640Z,6.20
2023-04-18T01:29:03.554Z,6.20
2023-04-18T01:30:02.657Z,6.20
2023-04-18T01:31:03.618Z,6.20
2023-04-18T01:32:03.586Z,6.20
2023-04-18T01:33:03.579Z,6.20
2023-04-18T01:34:03.556Z,6.20
2023-04-18T01:35:03.573Z,6.20
2023-04-18T01:36:03.541Z,6.20
2023-04-18T01:37:03.612Z,6.20
2023-04-18T01:38:03.540Z,6.20
2023-04-18T01:39:03.556Z,6.20
2023-04-18T01:40:02.622Z,6.20
2023-04-18T01:41:02.614Z,6.10
2023-04-18T01:42:02.817Z,6.20
2023-04-18T01:43:02.705Z,6.20
2023-04-18T01:44:02.814Z,6.20
2023-04-18T01:45:02.765Z,6.20
2023-04-18T01:46:02.646Z,6.20
2023-04-18T01:47:02.750Z,6.20
2023-04-18T01:48:02.696Z,6.20
2023-04-18T01:49:02.649Z,6.20
2023-04-18T01:50:03.631Z,6.20
2023-04-18T01:51:02.679Z,6.20
2023-04-18T01:52:03.597Z,6.20
2023-04-18T01:53:03.609Z,6.20
2023-04-18T01:54:02.674Z,6.20
2023-04-18T01:55:02.691Z,6.20
2023-04-18T01:56:02.715Z,6.20
2023-04-18T01:57:02.710Z,6.20
2023-04-18T01:58:02.713Z,6.20
2023-04-18T01:59:02.661Z,6.20
2023-04-18T02:00:02.640Z,6.20
2023-04-18T02:01:02.701Z,6.20
2023-04-18T02:02:02.796Z,6.20
2023-04-18T02:03:02.887Z,6.20
2023-04-18T02:04:02.806Z,6.20
2023-04-18T02:05:02.734Z,6.20
2023-04-18T02:06:02.856Z,6.20
2023-04-18T02:07:02.798Z,6.20
2023-04-18T02:08:02.775Z,6.20
2023-04-18T02:09:03.068Z,6.20
2023-04-18T02:10:03.029Z,6.20
2023-04-18T02:11:03.046Z,6.20
2023-04-18T02:12:03.037Z,6.20
2023-04-18T02:13:03.042Z,6.20
2023-04-18T02:14:03.115Z,6.20
2023-04-18T02:15:03.114Z,6.20
2023-04-18T02:16:03.063Z,6.20
2023-04-18T02:17:03.167Z,6.20
2023-04-18T02:18:03.110Z,6.20
2023-04-18T02:19:03.088Z,6.20
2023-04-18T02:20:03.136Z,6.20
2023-04-18T02:21:03.208Z,6.20
2023-04-18T02:22:03.200Z,6.20
2023-04-18T02:23:03.285Z,6.20
2023-04-18T02:24:03.264Z,6.20
2023-04-18T02:25:03.318Z,6.20
2023-04-18T02:26:03.233Z,6.20
2023-04-18T02:27:03.398Z,6.20
2023-04-18T02:28:03.370Z,6.20
2023-04-18T02:29:03.293Z,6.10
2023-04-18T02:30:03.306Z,6.20
2023-04-18T02:31:03.340Z,6.20
2023-04-18T02:32:03.487Z,6.20
2023-04-18T02:33:03.444Z,6.20
2023-04-18T02:34:03.484Z,6.20
2023-04-18T02:35:03.542Z,6.20
2023-04-18T02:36:03.424Z,6.20
2023-04-18T02:37:03.532Z,6.20
2023-04-18T02:38:03.480Z,6.20
2023-04-18T02:39:03.505Z,6.20
2023-04-18T02:40:03.456Z,6.20
2023-04-18T02:41:03.481Z,6.20
2023-04-18T02:42:03.537Z,6.20
2023-04-18T02:43:03.545Z,6.20
2023-04-18T02:44:03.502Z,6.20
2023-04-18T02:45:03.558Z,6.20
2023-04-18T02:46:03.503Z,6.20
2023-04-18T02:47:03.466Z,6.20
2023-04-18T02:48:03.434Z,6.20
2023-04-18T02:49:03.415Z,6.20
2023-04-18T02:50:03.470Z,6.20
2023-04-18T02:51:03.574Z,6.20
2023-04-18T02:52:03.562Z,6.20
2023-04-18T02:53:03.489Z,6.20
2023-04-18T02:54:03.450Z,6.20
2023-04-18T02:55:03.358Z,6.20
2023-04-18T02:56:03.327Z,6.20
2023-04-18T02:57:03.385Z,6.20
2023-04-18T02:58:03.339Z,6.20
2023-04-18T02:59:03.321Z,6.20
2023-04-18T03:00:03.246Z,6.20
2023-04-18T03:01:03.266Z,6.20
2023-04-18T03:02:03.213Z,6.20
2023-04-18T03:03:03.288Z,6.20
2023-04-18T03:04:03.093Z,6.20
2023-04-18T03:05:03.165Z,6.20
2023-04-18T03:06:03.092Z,6.20
2023-04-18T03:07:02.993Z,6.20
2023-04-18T03:08:03.028Z,6.20
2023-04-18T03:09:03.002Z,6.20
2023-04-18T03:10:02.981Z,6.20
2023-04-18T03:11:03.033Z,6.20
2023-04-18T03:12:03.101Z,6.20
2023-04-18T03:13:03.107Z,6.20
2023-04-18T03:14:03.183Z,6.20
2023-04-18T03:15:03.178Z,6.20
2023-04-18T03:16:03.254Z,6.20
2023-04-18T03:17:03.190Z,6.20
2023-04-18T03:18:03.294Z,6.20
2023-04-18T03:19:03.126Z,6.20
2023-04-18T03:20:03.129Z,6.20
2023-04-18T03:21:03.177Z,6.20
2023-04-18T03:22:03.167Z,6.20
2023-04-18T03:23:03.287Z,6.20
2023-04-18T03:24:03.210Z,6.20
2023-04-18T03:25:03.285Z,6.20
2023-04-18T03:26:03.217Z,6.30
2023-04-18T03:27:03.277Z,6.30
2023-04-18T03:28:03.263Z,6.30
2023-04-18T03:29:03.242Z,6.30
2023-04-18T03:30:03.353Z,6.30
2023-04-18T03:31:03.286Z,6.30
2023-04-18T03:32:03.360Z,6.30
2023-04-18T03:33:03.403Z,6.30
2023-04-18T03:34:03.195Z,6.30
2023-04-18T03:35:03.274Z,6.30
2023-04-18T03:36:03.180Z,6.30
2023-04-18T03:37:03.321Z,6.30
2023-04-18T03:38:03.279Z,6.30
2023-04-18T03:39:03.253Z,6.30
2023-04-18T03:40:03.181Z,6.30
2023-04-18T03:41:03.324Z,6.30
2023-04-18T03:42:03.215Z,6.30
2023-04-18T03:43:03.245Z,6.30
2023-04-18T03:44:03.259Z,6.30
2023-04-18T03:45:03.229Z,6.30
2023-04-18T03:46:03.216Z,6.30
2023-04-18T03:47:03.202Z,6.30
2023-04-18T03:48:03.164Z,6.30
2023-04-18T03:49:03.146Z,6.30
2023-04-18T03:50:03.196Z,6.30
2023-04-18T03:51:03.276Z,6.30
2023-04-18T03:52:03.418Z,6.30
2023-04-18T03:53:03.337Z,6.30
2023-04-18T03:54:03.431Z,6.30
2023-04-18T03:55:03.347Z,6.30
2023-04-18T03:56:03.503Z,6.30
2023-04-18T03:57:03.336Z,6.30
2023-04-18T03:58:03.473Z,6.30
2023-04-18T03:59:03.392Z,6.30
2023-04-18T04:00:03.415Z,6.30
2023-04-18T04:01:03.443Z,6.30
2023-04-18T04:02:03.498Z,6.30
2023-04-18T04:03:03.628Z,6.30
2023-04-18T04:04:03.449Z,6.30
2023-04-18T04:05:03.349Z,6.30
2023-04-18T04:06:03.348Z,6.30
2023-04-18T04:07:03.319Z,6.30
2023-04-18T04:08:03.413Z,6.30
2023-04-18T04:09:03.444Z,6.30
2023-04-18T04:10:03.392Z,6.30
2023-04-18T04:11:03.422Z,6.30
2023-04-18T04:12:03.439Z,6.30
2023-04-18T04:13:03.363Z,6.30
2023-04-18T04:14:03.272Z,6.30
2023-04-18T04:15:03.308Z,6.40
2023-04-18T04:16:03.285Z,6.30
2023-04-18T04:17:03.253Z,6.40
2023-04-18T04:18:03.186Z,6.40
2023-04-18T04:19:03.186Z,6.40
2023-04-18T04:20:03.124Z,6.40
2023-04-18T04:21:03.120Z,6.40
2023-04-18T04:22:03.110Z,6.40
2023-04-18T04:23:03.193Z,6.40
2023-04-18T04:24:03.185Z,6.40
2023-04-18T04:25:03.334Z,6.40
2023-04-18T04:26:03.316Z,6.40
2023-04-18T04:27:03.423Z,6.40
2023-04-18T04:28:03.375Z,6.40
2023-04-18T04:29:03.403Z,6.40
2023-04-18T04:30:03.405Z,6.40
2023-04-18T04:31:03.388Z,6.40
2023-04-18T04:32:03.379Z,6.40
2023-04-18T04:33:03.396Z,6.40
2023-04-18T04:34:03.255Z,6.40
2023-04-18T04:35:03.337Z,6.40
2023-04-18T04:36:03.245Z,6.40
2023-04-18T04:37:03.212Z,6.40
2023-04-18T04:38:03.188Z,6.40
2023-04-18T04:39:03.163Z,6.40
2023-04-18T04:40:03.196Z,6.40
2023-04-18T04:41:03.256Z,6.40
2023-04-18T04:42:03.337Z,6.50
2023-04-18T04:43:03.326Z,6.50
2023-04-18T04:44:03.444Z,6.50
2023-04-18T04:45:03.432Z,6.50
2023-04-18T04:46:03.311Z,6.50
2023-04-18T04:47:03.430Z,6.50
2023-04-18T04:48:03.378Z,6.50
2023-04-18T04:49:03.432Z,6.50
2023-04-18T04:50:03.526Z,6.50
2023-04-18T04:51:03.501Z,6.50
2023-04-18T04:52:03.508Z,6.50
2023-04-18T04:53:03.535Z,6.50
2023-04-18T04:54:03.568Z,6.50
2023-04-18T04:55:03.563Z,6.50
2023-04-18T04:56:03.573Z,6.50
2023-04-18T04:57:03.494Z,6.50
2023-04-18T04:58:03.512Z,6.50
2023-04-18T04:59:03.546Z,6.50
2023-04-18T05:00:03.575Z,6.50
2023-04-18T05:01:02.711Z,6.50
2023-04-18T05:02:02.733Z,6.50
2023-04-18T05:03:02.868Z,6.50
2023-04-18T05:04:02.814Z,6.50
2023-04-18T05:05:02.839Z,6.60
2023-04-18T05:06:02.846Z,6.60
2023-04-18T05:07:02.684Z,6.60
2023-04-18T05:08:02.817Z,6.60
2023-04-18T05:09:02.792Z,6.60
2023-04-18T05:10:02.724Z,6.60
2023-04-18T05:11:02.718Z,6.60
2023-04-18T05:12:02.728Z,6.60
2023-04-18T05:13:02.784Z,6.60
2023-04-18T05:14:02.755Z,6.60
2023-04-18T05:15:02.915Z,6.60
2023-04-18T05:16:02.916Z,6.60
2023-04-18T05:17:02.919Z,6.60
2023-04-18T05:18:02.946Z,6.60
2023-04-18T05:19:02.867Z,6.60
2023-04-18T05:20:02.766Z,6.60
2023-04-18T05:21:02.810Z,6.60
2023-04-18T05:22:02.733Z,6.70
2023-04-18T05:23:02.744Z,6.70
2023-04-18T05:24:03.648Z,6.70
2023-04-18T05:25:03.626Z,6.70
2023-04-18T05:26:03.570Z,6.70
2023-04-18T05:27:02.678Z,6.70
2023-04-18T05:28:02.651Z,6.70
2023-04-18T05:29:02.726Z,6.70
2023-04-18T05:30:02.802Z,6.70
2023-04-18T05:31:02.790Z,6.70
2023-04-18T05:32:02.843Z,6.70
2023-04-18T05:33:02.910Z,6.70
2023-04-18T05:34:02.772Z,6.70
2023-04-18T05:35:02.796Z,6.70
2023-04-18T05:36:02.760Z,6.80
2023-04-18T05:37:02.786Z,6.70
2023-04-18T05:38:02.742Z,6.80
2023-04-18T05:39:02.729Z,6.80
2023-04-18T05:40:02.728Z,6.80
2023-04-18T05:41:02.647Z,6.80
2023-04-18T05:42:02.652Z,6.80
2023-04-18T05:43:02.614Z,6.80
2023-04-18T05:44:05.559Z,6.80
2023-04-18T05:45:02.770Z,6.80
2023-04-18T05:46:02.726Z,6.80
2023-04-18T05:47:02.847Z,6.80
2023-04-18T05:48:02.965Z,6.80
2023-04-18T05:49:02.817Z,6.80
2023-04-18T05:50:02.833Z,6.80
2023-04-18T05:51:02.888Z,6.80
2023-04-18T05:52:02.799Z,6.80
2023-04-18T05:53:02.851Z,6.80
2023-04-18T05:54:02.966Z,6.80
2023-04-18T05:55:02.890Z,6.80
2023-04-18T05:56:02.944Z,6.80
2023-04-18T05:57:04.467Z,6.80
2023-04-18T05:58:02.948Z,6.80
2023-04-18T05:59:02.924Z,6.80
2023-04-18T06:00:02.947Z,6.80
2023-04-18T06:01:02.809Z,6.90
2023-04-18T06:02:02.986Z,6.80
2023-04-18T06:03:03.060Z,6.90
2023-04-18T06:04:02.987Z,6.90
2023-04-18T06:05:03.315Z,6.90
2023-04-18T06:06:03.163Z,6.90
2023-04-18T06:07:03.035Z,6.90
2023-04-18T06:08:03.058Z,6.90
2023-04-18T06:09:03.089Z,6.90
2023-04-18T06:10:03.063Z,6.90
2023-04-18T06:11:02.922Z,6.90
2023-04-18T06:12:02.770Z,6.90
2023-04-18T06:13:02.772Z,6.90
2023-04-18T06:14:02.858Z,6.90
2023-04-18T06:15:02.878Z,6.90
2023-04-18T06:16:02.899Z,6.90
2023-04-18T06:17:02.869Z,6.90
2023-04-18T06:18:03.105Z,6.90
2023-04-18T06:19:02.922Z,6.90
2023-04-18T06:20:02.998Z,6.90
2023-04-18T06:21:02.715Z,6.90
2023-04-18T06:22:02.751Z,6.90
2023-04-18T06:23:02.650Z,6.90
2023-04-18T06:24:02.699Z,6.90
2023-04-18T06:25:02.658Z,6.90
2023-04-18T06:26:02.704Z,6.90
2023-04-18T06:27:02.703Z,6.90
2023-04-18T06:28:02.721Z,6.90
2023-04-18T06:29:02.813Z,7.00
2023-04-18T06:30:02.790Z,7.00
2023-04-18T06:31:02.728Z,7.00
2023-04-18T06:32:02.729Z,7.00
2023-04-18T06:33:03.718Z,7.00
2023-04-18T06:34:02.658Z,7.00
2023-04-18T06:35:02.734Z,7.00
2023-04-18T06:36:03.615Z,7.00
2023-04-18T06:37:02.720Z,7.00
2023-04-18T06:38:02.766Z,7.00
2023-04-18T06:39:02.812Z,7.00
2023-04-18T06:40:02.856Z,7.00
2023-04-18T06:41:02.807Z,7.10
2023-04-18T06:42:02.908Z,7.00
2023-04-18T06:43:02.760Z,7.00
2023-04-18T06:44:04.396Z,7.10
2023-04-18T06:45:02.921Z,7.10
2023-04-18T06:46:02.959Z,7.10
2023-04-18T06:47:03.008Z,7.10
2023-04-18T06:48:03.013Z,7.10
2023-04-18T06:49:03.091Z,7.10
2023-04-18T06:50:03.074Z,7.10
2023-04-18T06:51:03.120Z,7.10
2023-04-18T06:52:03.083Z,7.10
2023-04-18T06:53:03.174Z,7.10
2023-04-18T06:54:03.051Z,7.10
2023-04-18T06:55:03.106Z,7.10
2023-04-18T06:56:03.159Z,7.10
2023-04-18T06:57:03.404Z,7.10
2023-04-18T06:58:03.307Z,7.10
2023-04-18T06:59:03.322Z,7.10
2023-04-18T07:00:03.431Z,7.10
2023-04-18T07:01:03.511Z,7.20
2023-04-18T07:02:03.370Z,7.20
2023-04-18T07:03:03.647Z,7.20
2023-04-18T07:04:03.483Z,7.20
2023-04-18T07:05:03.615Z,7.20
2023-04-18T07:06:03.571Z,7.20
2023-04-18T07:07:03.547Z,7.20
2023-04-18T07:08:02.658Z,7.20
2023-04-18T07:09:02.723Z,7.20
2023-04-18T07:10:02.820Z,7.20
2023-04-18T07:11:02.859Z,7.20
2023-04-18T07:12:02.692Z,7.20
2023-04-18T07:13:02.760Z,7.20
2023-04-18T07:14:02.799Z,7.20
2023-04-18T07:15:02.807Z,7.20
2023-04-18T07:16:02.726Z,7.20
2023-04-18T07:17:02.950Z,7.20
2023-04-18T07:18:02.786Z,7.20
2023-04-18T07:19:02.907Z,7.20
2023-04-18T07:20:02.783Z,7.20
2023-04-18T07:21:02.772Z,7.20
2023-04-18T07:22:02.790Z,7.20
2023-04-18T07:23:02.761Z,7.20
2023-04-18T07:24:02.781Z,7.10
2023-04-18T07:25:02.903Z,7.20
2023-04-18T07:26:03.137Z,7.20
2023-04-18T07:27:02.923Z,7.20
2023-04-18T07:28:02.865Z,7.20
2023-04-18T07:29:02.967Z,7.20
2023-04-18T07:30:02.917Z,7.20
2023-04-18T07:31:03.039Z,7.20
2023-04-18T07:32:02.966Z,7.20
2023-04-18T07:33:02.986Z,7.20
2023-04-18T07:34:02.808Z,7.20
2023-04-18T07:35:02.928Z,7.20
2023-04-18T07:36:02.945Z,7.30
2023-04-18T07:37:02.885Z,7.30
2023-04-18T07:38:02.818Z,7.30
2023-04-18T07:39:02.844Z,7.30
2023-04-18T07:40:02.811Z,7.30
2023-04-18T07:41:02.738Z,7.30
2023-04-18T07:42:02.643Z,7.30
2023-04-18T07:43:03.612Z,7.40
2023-04-18T07:44:02.623Z,7.40
2023-04-18T07:45:02.681Z,7.40
2023-04-18T07:46:02.768Z,7.40
2023-04-18T07:47:02.679Z,7.40
2023-04-18T07:48:03.563Z,7.40
2023-04-18T07:49:03.610Z,7.40
2023-04-18T07:50:02.741Z,7.40
2023-04-18T07:51:02.709Z,7.40
2023-04-18T07:52:02.607Z,7.40
2023-04-18T07:53:02.791Z,7.40
2023-04-18T07:54:03.686Z,7.40
2023-04-18T07:55:03.564Z,7.50
2023-04-18T07:56:03.401Z,7.40
2023-04-18T07:57:03.644Z,7.40
2023-04-18T07:58:03.538Z,7.50
2023-04-18T07:59:03.510Z,7.50
2023-04-18T08:00:03.366Z,7.50
2023-04-18T08:01:03.432Z,7.50
2023-04-18T08:02:03.431Z,7.50
2023-04-18T08:03:03.533Z,7.50
2023-04-18T08:04:03.552Z,7.50
2023-04-18T08:05:03.743Z,7.50
2023-04-18T08:06:03.573Z,7.50
2023-04-18T08:07:03.531Z,7.50
2023-04-18T08:08:03.507Z,7.50
2023-04-18T08:09:03.512Z,7.50
2023-04-18T08:10:03.645Z,7.50
2023-04-18T08:11:03.528Z,7.50
2023-04-18T08:12:03.543Z,7.50
2023-04-18T08:13:03.518Z,7.50
2023-04-18T08:14:03.443Z,7.50
2023-04-18T08:15:03.512Z,7.50
2023-04-18T08:16:03.593Z,7.50
2023-04-18T08:17:03.585Z,7.50
2023-04-18T08:18:03.676Z,7.50
2023-04-18T08:19:03.531Z,7.50
2023-04-18T08:20:03.571Z,7.50
2023-04-18T08:21:03.593Z,7.50
2023-04-18T08:22:03.562Z,7.50
2023-04-18T08:23:07.800Z,7.60
2023-04-18T08:24:03.491Z,7.60
2023-04-18T08:25:04.770Z,7.60
2023-04-18T08:26:03.466Z,7.60
2023-04-18T08:27:03.373Z,7.60
2023-04-18T08:28:03.498Z,7.60
2023-04-18T08:29:03.407Z,7.60
2023-04-18T08:30:03.532Z,7.60
2023-04-18T08:31:03.494Z,7.60
2023-04-18T08:32:03.768Z,7.60
2023-04-18T08:33:03.580Z,7.60
2023-04-18T08:34:04.926Z,7.60
2023-04-18T08:35:02.683Z,7.60
2023-04-18T08:36:02.686Z,7.60
2023-04-18T08:37:02.735Z,7.60
2023-04-18T08:38:02.728Z,7.60
2023-04-18T08:39:02.678Z,7.60
2023-04-18T08:40:02.680Z,7.60
2023-04-18T08:41:02.618Z,7.70
2023-04-18T08:42:03.602Z,7.70
2023-04-18T08:43:02.634Z,7.70
2023-04-18T08:44:02.660Z,7.70
2023-04-18T08:45:02.740Z,7.70
2023-04-18T08:46:02.860Z,7.70
2023-04-18T08:47:02.825Z,7.70
2023-04-18T08:48:02.978Z,7.70
2023-04-18T08:49:02.863Z,7.70
2023-04-18T08:50:02.888Z,7.70
2023-04-18T08:51:02.834Z,7.70
2023-04-18T08:52:02.959Z,7.70
2023-04-18T08:53:03.036Z,7.70
2023-04-18T08:54:02.815Z,7.70
2023-04-18T08:55:02.904Z,7.70
2023-04-18T08:56:02.837Z,7.70
2023-04-18T08:57:02.889Z,7.80
2023-04-18T08:58:02.847Z,7.80
2023-04-18T08:59:02.779Z,7.80
2023-04-18T09:00:02.746Z,7.80
2023-04-18T09:01:02.991Z,7.80
2023-04-18T09:02:02.987Z,7.80
2023-04-18T09:03:03.174Z,7.80
2023-04-18T09:04:02.977Z,7.80
2023-04-18T09:05:03.063Z,7.80
2023-04-18T09:06:03.089Z,7.80
2023-04-18T09:07:03.076Z,7.80
2023-04-18T09:08:03.013Z,7.80
2023-04-18T09:09:03.089Z,7.80
2023-04-18T09:10:03.068Z,7.80
2023-04-18T09:11:02.982Z,7.80
2023-04-18T09:12:03.177Z,7.80
2023-04-18T09:13:03.378Z,7.90
2023-04-18T09:14:03.069Z,7.90
2023-04-18T09:15:02.964Z,7.90
2023-04-18T09:16:02.896Z,7.90
2023-04-18T09:17:02.964Z,7.90
2023-04-18T09:18:03.441Z,7.90
2023-04-18T09:19:04.216Z,8.00
2023-04-18T09:20:03.097Z,8.00
2023-04-18T09:21:02.994Z,8.00
2023-04-18T09:22:03.073Z,8.00
2023-04-18T09:23:03.046Z,8.00
2023-04-18T09:24:03.067Z,8.00
2023-04-18T09:25:03.002Z,8.00
2023-04-18T09:26:03.046Z,8.00
2023-04-18T09:27:02.918Z,8.00
2023-04-18T09:28:02.943Z,8.00
2023-04-18T09:29:02.972Z,8.00
2023-04-18T09:30:03.223Z,7.90
2023-04-18T09:31:03.240Z,7.90
2023-04-18T09:32:03.121Z,7.90
2023-04-18T09:33:04.109Z,7.90
2023-04-18T09:34:03.042Z,7.90
2023-04-18T09:35:04.521Z,7.90
2023-04-18T09:36:02.880Z,7.90
2023-04-18T09:37:02.989Z,7.90
2023-04-18T09:38:03.006Z,7.90
2023-04-18T09:39:03.010Z,7.90
2023-04-18T09:40:03.442Z,7.90
2023-04-18T09:41:03.584Z,7.90
2023-04-18T09:42:03.467Z,7.90
2023-04-18T09:43:03.637Z,7.90
2023-04-18T09:44:03.571Z,7.80
2023-04-18T09:45:03.627Z,7.80
2023-04-18T09:46:03.664Z,7.80
2023-04-18T09:47:03.592Z,7.80
2023-04-18T09:48:03.586Z,7.80
2023-04-18T09:49:03.441Z,7.80
2023-04-18T09:50:03.446Z,7.80
2023-04-18T09:51:03.411Z,7.80
2023-04-18T09:52:03.349Z,7.80
2023-04-18T09:53:03.390Z,7.80
2023-04-18T09:54:03.499Z,7.80
2023-04-18T09:55:03.643Z,7.70
2023-04-18T09:56:03.557Z,7.70
2023-04-18T09:57:03.472Z,7.70
2023-04-18T09:58:02.648Z,7.70
2023-04-18T09:59:02.763Z,7.70
2023-04-18T10:00:02.780Z,7.70
2023-04-18T10:01:02.728Z,7.70
2023-04-18T10:02:02.757Z,7.70
2023-04-18T10:03:02.842Z,7.70
2023-04-18T10:04:02.929Z,7.70
2023-04-18T10:05:02.948Z,7.70
2023-04-18T10:06:02.801Z,7.70
2023-04-18T10:07:02.744Z,7.70
2023-04-18T10:08:02.770Z,7.70
2023-04-18T10:09:02.851Z,7.70
2023-04-18T10:10:02.913Z,7.70
2023-04-18T10:11:02.855Z,7.70
2023-04-18T10:12:02.816Z,7.70
2023-04-18T10:13:02.885Z,7.70
2023-04-18T10:14:02.849Z,7.70
2023-04-18T10:15:02.781Z,7.70
2023-04-18T10:16:02.921Z,7.70
2023-04-18T10:17:02.905Z,7.70
2023-04-18T10:18:05.533Z,7.70
2023-04-18T10:19:02.919Z,7.70
2023-04-18T10:20:02.946Z,7.70
2023-04-18T10:21:02.854Z,7.70
2023-04-18T10:22:02.915Z,7.70
2023-04-18T10:23:02.991Z,7.70
2023-04-18T10:24:02.912Z,7.70
2023-04-18T10:25:02.833Z,7.70
2023-04-18T10:26:02.787Z,7.70
2023-04-18T10:27:02.778Z,7.70
2023-04-18T10:28:02.860Z,7.70
2023-04-18T10:29:02.848Z,7.70
2023-04-18T10:30:02.732Z,7.70
2023-04-18T10:31:02.838Z,7.70
2023-04-18T10:32:02.679Z,7.70
2023-04-18T10:33:02.708Z,7.70
2023-04-18T10:34:05.483Z,7.70
2023-04-18T10:35:03.825Z,7.70
2023-04-18T10:36:03.720Z,7.80
2023-04-18T10:37:03.619Z,7.80
2023-04-18T10:38:02.759Z,7.80
2023-04-18T10:39:02.767Z,7.70
2023-04-18T10:40:02.943Z,7.70
2023-04-18T10:41:02.749Z,7.70
2023-04-18T10:42:02.854Z,7.80
2023-04-18T10:43:02.824Z,7.70
2023-04-18T10:44:02.857Z,7.80
2023-04-18T10:45:02.909Z,7.80
2023-04-18T10:46:02.930Z,7.80
2023-04-18T10:47:02.914Z,7.80
2023-04-18T10:48:02.913Z,7.80
2023-04-18T10:49:02.868Z,7.80
2023-04-18T10:50:06.042Z,7.80
2023-04-18T10:51:02.936Z,7.80
2023-04-18T10:52:03.016Z,7.80
2023-04-18T10:53:03.061Z,7.90
2023-04-18T10:54:03.722Z,7.90
2023-04-18T10:55:03.049Z,7.90
2023-04-18T10:56:03.215Z,7.90
2023-04-18T10:57:03.200Z,7.90
2023-04-18T10:58:03.273Z,7.90
2023-04-18T10:59:03.247Z,8.00
2023-04-18T11:00:03.218Z,8.00
2023-04-18T11:01:03.284Z,8.00
2023-04-18T11:02:03.264Z,8.00
2023-04-18T11:03:03.423Z,8.00
2023-04-18T11:04:03.226Z,8.00
2023-04-18T11:05:03.296Z,8.00
2023-04-18T11:06:03.308Z,8.00
2023-04-18T11:07:03.315Z,8.00
2023-04-18T11:08:03.289Z,8.00
2023-04-18T11:09:03.379Z,8.00
2023-04-18T11:10:03.386Z,8.00
2023-04-18T11:11:03.564Z,8.00
2023-04-18T11:12:03.502Z,8.00
2023-04-18T11:13:03.569Z,8.00
2023-04-18T11:14:02.677Z,8.00
2023-04-18T11:15:02.776Z,8.00
2023-04-18T11:16:02.845Z,8.00
2023-04-18T11:17:02.867Z,8.00
2023-04-18T11:18:02.800Z,8.10
2023-04-18T11:19:02.759Z,8.10
2023-04-18T11:20:02.671Z,8.10
2023-04-18T11:21:02.702Z,8.10
2023-04-18T11:22:02.659Z,8.10
2023-04-18T11:23:02.807Z,8.10
2023-04-18T11:24:02.708Z,8.10
2023-04-18T11:25:02.724Z,8.20
2023-04-18T11:26:02.746Z,8.20
2023-04-18T11:27:02.686Z,8.20
2023-04-18T11:28:02.727Z,8.20
2023-04-18T11:29:02.804Z,8.20
2023-04-18T11:30:02.838Z,8.20
2023-04-18T11:31:02.774Z,8.20
2023-04-18T11:32:02.991Z,8.20
2023-04-18T11:33:02.872Z,8.30
2023-04-18T11:34:02.959Z,8.30
2023-04-18T11:35:02.896Z,8.30
2023-04-18T11:36:03.041Z,8.30
2023-04-18T11:37:02.975Z,8.30
2023-04-18T11:38:03.187Z,8.30
2023-04-18T11:39:03.145Z,8.30
2023-04-18T11:40:03.126Z,8.40
2023-04-18T11:41:03.202Z,8.30
2023-04-18T11:42:03.331Z,8.40
2023-04-18T11:43:03.493Z,8.40
2023-04-18T11:44:03.407Z,8.40
2023-04-18T11:45:03.502Z,8.40
2023-04-18T11:46:03.538Z,8.40
2023-04-18T11:47:02.904Z,8.50
2023-04-18T11:48:02.961Z,8.50
2023-04-18T11:49:02.866Z,8.50
2023-04-18T11:50:03.005Z,8.50
2023-04-18T11:51:03.171Z,8.50
2023-04-18T11:52:03.097Z,8.50
2023-04-18T11:53:03.274Z,8.50
2023-04-18T11:54:03.381Z,8.50
2023-04-18T11:55:03.349Z,8.60
2023-04-18T11:56:03.502Z,8.60
2023-04-18T11:57:03.575Z,8.60
2023-04-18T11:58:03.564Z,8.60
2023-04-18T11:59:02.672Z,8.60
2023-04-18T12:00:02.704Z,8.60
2023-04-18T12:01:02.724Z,8.70
2023-04-18T12:02:15.174Z,8.70
2023-04-18T12:03:02.921Z,8.70
2023-04-18T12:04:03.027Z,8.70
2023-04-18T12:05:02.893Z,8.70
2023-04-18T12:06:02.917Z,8.70
2023-04-18T12:07:02.825Z,8.70
2023-04-18T12:08:02.848Z,8.80
2023-04-18T12:09:02.990Z,8.80
2023-04-18T12:10:02.987Z,8.80
2023-04-18T12:11:03.021Z,8.80
2023-04-18T12:12:03.150Z,8.80
2023-04-18T12:13:03.257Z,8.80
2023-04-18T12:14:04.080Z,8.80
2023-04-18T12:15:03.197Z,8.90
2023-04-18T12:16:03.178Z,8.90
2023-04-18T12:17:03.216Z,8.90
2023-04-18T12:18:03.259Z,8.90
2023-04-18T12:19:03.318Z,8.90
2023-04-18T12:20:03.295Z,8.90
2023-04-18T12:21:03.289Z,9.00
2023-04-18T12:22:03.353Z,9.00
2023-04-18T12:23:03.507Z,9.00
2023-04-18T12:24:03.435Z,9.00
2023-04-18T12:25:03.355Z,9.00
2023-04-18T12:26:03.527Z,9.10
2023-04-18T12:27:03.516Z,9.10
2023-04-18T12:28:02.684Z,9.10
2023-04-18T12:29:02.819Z,9.10
2023-04-18T12:30:02.768Z,9.10
2023-04-18T12:31:02.863Z,9.10
2023-04-18T12:32:02.761Z,9.10
2023-04-18T12:33:02.817Z,9.20
2023-04-18T12:34:02.715Z,9.20
2023-04-18T12:35:02.752Z,9.20
2023-04-18T12:36:02.714Z,9.20
2023-04-18T12:37:02.766Z,9.20
2023-04-18T12:38:02.742Z,9.30
2023-04-18T12:39:04.018Z,9.30
2023-04-18T12:40:03.077Z,9.30
2023-04-18T12:41:03.090Z,9.30
2023-04-18T12:42:03.220Z,9.30
2023-04-18T12:43:03.850Z,9.30
2023-04-18T12:44:03.158Z,9.30
2023-04-18T12:45:03.323Z,9.30
2023-04-18T12:46:03.376Z,9.30
2023-04-18T12:47:03.176Z,9.30
2023-04-18T12:48:03.161Z,9.30
2023-04-18T12:49:03.133Z,9.30
2023-04-18T12:50:03.170Z,9.30
2023-04-18T12:51:03.124Z,9.30
2023-04-18T12:52:03.141Z,9.30
2023-04-18T12:53:03.185Z,9.30
2023-04-18T12:54:03.164Z,9.30
2023-04-18T12:55:03.175Z,9.30
2023-04-18T12:56:03.166Z,9.30
2023-04-18T12:57:03.137Z,9.30
2023-04-18T12:58:03.148Z,9.30
2023-04-18T12:59:03.237Z,9.30
2023-04-18T13:00:03.165Z,9.30
2023-04-18T13:01:03.161Z,9.30
2023-04-18T13:02:03.255Z,9.30
2023-04-18T13:03:03.334Z,9.30
2023-04-18T13:04:11.367Z,9.30
2023-04-18T13:05:03.240Z,9.30
2023-04-18T13:06:03.136Z,9.30
2023-04-18T13:07:03.138Z,9.30
2023-04-18T13:09:03.008Z,9.30
2023-04-18T13:10:03.031Z,9.30
2023-04-18T13:11:02.986Z,9.30
2023-04-18T13:12:03.214Z,9.30
2023-04-18T13:13:03.035Z,9.20
2023-04-18T13:14:03.043Z,9.20
2023-04-18T13:15:03.040Z,9.20
2023-04-18T13:16:03.109Z,9.20
2023-04-18T13:17:03.278Z,9.20
2023-04-18T13:18:03.390Z,9.20
2023-04-18T13:19:03.462Z,9.20